Time;durP1;ratioP1;P1;durP2;ratioP2;P2;SDS_P1;SDS_P2;PMS_P1;PMS_P2;Temp;Humidity;BMP_temperature;BMP_pressure;BME280_temperature;BME280_humidity;BME280_pressure;Samples;Min_cycle;Max_cycle;Signal;HPM_P1;HPM_P2
2023/10/24 00:01:56;;;;;;;13.98;7.38;;;11.00;85.90;;;;;;4996116;28;20149;-90
2023/10/24 00:04:23;;;;;;;14.93;7.95;;;11.00;86.10;;;;;;5013215;28;20059;-91
2023/10/24 00:06:50;;;;;;;13.95;7.32;;;11.00;86.10;;;;;;5013482;28;20039;-91
2023/10/24 00:09:18;;;;;;;16.33;7.87;;;10.90;86.30;;;;;;4980908;28;20081;-91
2023/10/24 00:11:45;;;;;;;14.90;7.95;;;11.00;86.20;;;;;;5007817;28;20266;-91
2023/10/24 00:14:12;;;;;;;15.57;7.80;;;11.00;86.30;;;;;;5008380;28;20058;-91
2023/10/24 00:16:41;;;;;;;14.45;7.57;;;11.00;86.20;;;;;;4975537;28;20101;-91
2023/10/24 00:19:10;;;;;;;15.57;7.55;;;11.00;86.40;;;;;;5008986;28;20105;-90
2023/10/24 00:21:37;;;;;;;15.90;7.37;;;11.00;86.30;;;;;;4975704;28;20456;-90
2023/10/24 00:24:08;;;;;;;15.13;7.35;;;11.00;86.40;;;;;;5007724;28;20262;-90
2023/10/24 00:26:35;;;;;;;13.82;7.35;;;11.00;86.50;;;;;;5007311;28;20058;-90
2023/10/24 00:29:02;;;;;;;13.77;7.68;;;11.00;86.50;;;;;;5023736;28;20055;-91
2023/10/24 00:31:29;;;;;;;14.15;6.97;;;11.00;86.40;;;;;;4974094;28;20106;-90
2023/10/24 00:33:57;;;;;;;14.17;6.77;;;11.00;86.50;;;;;;5006057;28;20061;-90
2023/10/24 00:36:26;;;;;;;15.27;7.15;;;11.00;86.70;;;;;;4974523;28;20280;-90
2023/10/24 00:38:55;;;;;;;14.90;7.13;;;11.00;86.60;;;;;;4999374;28;20054;-90
2023/10/24 00:41:22;;;;;;;13.02;7.10;;;11.00;86.80;;;;;;4955077;28;20493;-90
2023/10/24 00:43:51;;;;;;;14.45;7.65;;;11.00;86.80;;;;;;4960726;28;20057;-90
2023/10/24 00:46:18;;;;;;;12.80;7.33;;;11.00;86.80;;;;;;4974687;28;20060;-91
2023/10/24 00:48:45;;;;;;;13.95;7.10;;;11.00;86.80;;;;;;4975140;28;20286;-90
2023/10/24 00:51:12;;;;;;;15.77;7.63;;;11.00;87.00;;;;;;5007619;28;20086;-91
2023/10/24 00:53:42;;;;;;;14.70;7.03;;;11.00;87.10;;;;;;4975102;28;20057;-90
2023/10/24 00:56:11;;;;;;;16.00;7.47;;;11.00;87.00;;;;;;5007242;28;20054;-91
2023/10/24 00:58:41;;;;;;;15.63;7.60;;;11.00;87.10;;;;;;4974199;28;20055;-91
2023/10/24 01:01:12;;;;;;;13.27;6.30;;;11.00;87.20;;;;;;4975175;28;20262;-90
2023/10/24 01:03:40;;;;;;;12.88;6.30;;;11.00;87.10;;;;;;5007492;28;20114;-90
2023/10/24 01:06:08;;;;;;;13.45;6.78;;;11.00;87.20;;;;;;4974840;28;20154;-90
2023/10/24 01:08:35;;;;;;;12.75;6.53;;;11.00;87.20;;;;;;4990464;28;20055;-90
2023/10/24 01:11:04;;;;;;;12.43;6.97;;;11.00;87.20;;;;;;4974524;28;20855;-90
2023/10/24 01:13:31;;;;;;;13.25;6.68;;;11.00;87.40;;;;;;4974722;28;20262;-90
2023/10/24 01:15:59;;;;;;;12.30;6.47;;;11.10;87.40;;;;;;4982792;28;20509;-90
2023/10/24 01:18:26;;;;;;;10.82;5.72;;;11.00;87.50;;;;;;4974656;28;20463;-90
2023/10/24 01:20:53;;;;;;;12.43;6.35;;;11.00;87.50;;;;;;4974743;28;20059;-91
2023/10/24 01:23:28;;;;;;;12.67;6.43;;;11.10;87.50;;;;;;4974541;28;20057;-90
2023/10/24 01:25:57;;;;;;;10.85;5.80;;;11.00;87.60;;;;;;5007075;28;20274;-91
2023/10/24 01:28:26;;;;;;;12.43;6.22;;;11.10;87.70;;;;;;4974923;28;20082;-90
2023/10/24 01:30:53;;;;;;;13.30;6.13;;;11.10;87.70;;;;;;5007265;28;20055;-89
2023/10/24 01:33:22;;;;;;;12.80;6.07;;;11.10;87.90;;;;;;4974465;28;20856;-90
2023/10/24 01:35:54;;;;;;;12.97;6.23;;;11.10;87.80;;;;;;5005958;28;20051;-90
2023/10/24 01:38:21;;;;;;;11.02;5.80;;;11.10;88.20;;;;;;5006639;28;20989;-90
2023/10/24 01:40:49;;;;;;;12.52;5.90;;;11.10;88.20;;;;;;4974153;28;20524;-90
2023/10/24 01:43:16;;;;;;;10.80;6.03;;;11.10;88.10;;;;;;4973886;28;20506;-90
2023/10/24 01:45:44;;;;;;;10.35;5.82;;;11.10;88.10;;;;;;5010402;28;20047;-90
2023/10/24 01:48:11;;;;;;;11.13;6.07;;;11.10;88.20;;;;;;4978798;28;20047;-89
2023/10/24 01:50:38;;;;;;;11.75;5.97;;;11.10;88.00;;;;;;4978516;28;20262;-90
2023/10/24 01:53:06;;;;;;;11.02;5.55;;;11.10;88.00;;;;;;4977888;28;20070;-90
2023/10/24 01:55:34;;;;;;;10.90;6.05;;;11.10;88.20;;;;;;5011459;28;20050;-90
2023/10/24 01:58:04;;;;;;;11.20;5.68;;;11.10;88.20;;;;;;4978191;28;20055;-90
2023/10/24 02:00:36;;;;;;;10.10;5.40;;;11.10;88.40;;;;;;4979160;28;20051;-90
2023/10/24 02:03:04;;;;;;;9.75;5.22;;;11.20;88.30;;;;;;4979109;28;20254;-90
2023/10/24 02:05:31;;;;;;;10.95;5.63;;;11.20;88.20;;;;;;5027190;28;20058;-90
2023/10/24 02:07:59;;;;;;;11.30;5.18;;;11.20;88.20;;;;;;5011284;28;20110;-91
2023/10/24 02:10:26;;;;;;;11.43;5.30;;;11.20;88.20;;;;;;4977897;28;20456;-90
2023/10/24 02:12:58;;;;;;;10.93;5.77;;;11.20;88.60;;;;;;5010971;28;21409;-90
2023/10/24 02:15:29;;;;;;;10.32;5.50;;;11.30;88.50;;;;;;4978303;28;20247;-88
2023/10/24 02:17:56;;;;;;;9.52;5.30;;;11.30;88.50;;;;;;5010908;28;20054;-91
2023/10/24 02:20:24;;;;;;;10.93;5.68;;;11.30;88.80;;;;;;5011123;28;20058;-89
2023/10/24 02:22:55;;;;;;;10.65;5.38;;;11.30;88.60;;;;;;4978409;28;20066;-90
2023/10/24 02:25:22;;;;;;;10.93;5.80;;;11.30;88.60;;;;;;5011103;28;20046;-90
2023/10/24 02:27:53;;;;;;;12.02;5.80;;;11.30;88.70;;;;;;4978273;28;20294;-91
2023/10/24 02:30:21;;;;;;;11.05;5.68;;;11.30;88.60;;;;;;5009981;28;20070;-91
2023/10/24 02:32:50;;;;;;;11.07;5.78;;;11.30;88.60;;;;;;5011071;28;20055;-91
2023/10/24 02:35:17;;;;;;;10.77;5.53;;;11.30;88.70;;;;;;5010908;28;20062;-90
2023/10/24 02:37:49;;;;;;;11.73;6.00;;;11.30;88.60;;;;;;4977630;28;20054;-90
2023/10/24 02:40:18;;;;;;;9.95;5.78;;;11.40;88.60;;;;;;4977885;28;20257;-90
2023/10/24 02:42:46;;;;;;;11.43;5.97;;;11.40;88.70;;;;;;5010992;28;20090;-89
2023/10/24 02:45:13;;;;;;;10.07;5.80;;;11.40;88.90;;;;;;4977925;28;20051;-89
2023/10/24 02:47:48;;;;;;;12.13;6.22;;;11.40;88.80;;;;;;4977330;28;20108;-90
2023/10/24 02:50:18;;;;;;;12.43;6.20;;;11.40;88.90;;;;;;5010713;28;20049;-90
2023/10/24 02:52:49;;;;;;;11.38;6.10;;;11.40;88.90;;;;;;4978128;28;20262;-90
2023/10/24 02:55:17;;;;;;;12.73;6.60;;;11.40;88.90;;;;;;4977528;28;20043;-89
2023/10/24 02:57:45;;;;;;;11.93;6.47;;;11.40;89.00;;;;;;4978989;28;20058;-90
2023/10/24 03:00:39;;;;;;;12.00;6.40;;;11.40;88.90;;;;;;5013435;28;20589;-90
2023/10/24 03:03:07;;;;;;;12.03;6.50;;;11.50;88.90;;;;;;5013657;28;20055;-91
2023/10/24 03:05:35;;;;;;;14.05;6.40;;;11.50;88.90;;;;;;5013196;28;20358;-91
2023/10/24 03:08:03;;;;;;;13.82;6.88;;;11.50;88.90;;;;;;4980117;28;20057;-91
2023/10/24 03:10:30;;;;;;;11.82;6.15;;;11.50;88.80;;;;;;4981229;28;20062;-90
2023/10/24 03:13:01;;;;;;;13.20;7.45;;;11.50;88.90;;;;;;5013585;28;20050;-89
2023/10/24 03:15:28;;;;;;;13.50;7.17;;;11.50;88.80;;;;;;5013387;28;20075;-89
2023/10/24 03:17:56;;;;;;;11.77;7.00;;;11.50;88.80;;;;;;4965927;28;20279;-91
2023/10/24 03:20:25;;;;;;;11.43;6.68;;;11.50;88.90;;;;;;4993356;28;20054;-90
2023/10/24 03:22:55;;;;;;;13.65;7.15;;;11.50;88.80;;;;;;4961617;28;20538;-90
2023/10/24 03:25:24;;;;;;;10.98;6.55;;;11.50;89.00;;;;;;4999321;28;20054;-90
2023/10/24 03:27:53;;;;;;;11.83;6.83;;;11.50;89.00;;;;;;5012976;28;20065;-90
2023/10/24 03:30:21;;;;;;;12.20;6.80;;;11.50;89.00;;;;;;5013176;28;20255;-89
2023/10/24 03:32:51;;;;;;;13.55;7.15;;;11.50;89.10;;;;;;4980153;28;20512;-89
2023/10/24 03:35:18;;;;;;;11.98;6.53;;;11.50;89.10;;;;;;4996293;28;20058;-88
2023/10/24 03:37:47;;;;;;;10.88;6.25;;;11.50;89.10;;;;;;5012991;28;20074;-91
2023/10/24 03:40:17;;;;;;;12.60;7.00;;;11.50;89.10;;;;;;4980181;28;20067;-91
2023/10/24 03:42:44;;;;;;;11.55;6.97;;;11.50;89.10;;;;;;5013114;28;20749;-90
2023/10/24 03:45:11;;;;;;;12.88;7.57;;;11.60;89.10;;;;;;4979459;28;20098;-90
2023/10/24 03:47:40;;;;;;;11.30;7.00;;;11.60;89.10;;;;;;4980587;28;20781;-90
2023/10/24 03:50:14;;;;;;;12.05;7.05;;;11.60;89.10;;;;;;5012830;28;20138;-91
2023/10/24 03:52:41;;;;;;;13.97;7.40;;;11.60;89.10;;;;;;4980394;28;20121;-89
2023/10/24 03:55:11;;;;;;;13.52;7.15;;;11.70;89.10;;;;;;4979654;28;20333;-89
2023/10/24 03:57:41;;;;;;;12.23;7.43;;;11.70;89.10;;;;;;4979861;28;20058;-90
2023/10/24 04:00:09;;;;;;;12.48;7.40;;;11.70;89.10;;;;;;5012834;28;20054;-90
2023/10/24 04:02:46;;;;;;;12.90;7.57;;;11.70;89.10;;;;;;4995788;28;20126;-90
2023/10/24 04:05:15;;;;;;;13.70;8.20;;;11.70;89.10;;;;;;5012774;28;20062;-90
2023/10/24 04:07:42;;;;;;;13.23;7.43;;;11.70;89.10;;;;;;5011581;28;20819;-91
2023/10/24 04:10:10;;;;;;;13.07;7.38;;;11.70;89.10;;;;;;4979010;28;20054;-89
2023/10/24 04:12:38;;;;;;;15.68;8.40;;;11.70;89.20;;;;;;4979936;28;20058;-89
2023/10/24 04:15:09;;;;;;;12.48;6.75;;;11.70;89.20;;;;;;4979257;28;20055;-89
2023/10/24 04:17:36;;;;;;;12.80;7.17;;;11.70;89.20;;;;;;4979582;28;20059;-91
2023/10/24 04:20:08;;;;;;;13.88;7.55;;;11.70;89.10;;;;;;4980057;28;20294;-90
2023/10/24 04:23:26;;;;;;;12.70;7.10;;;11.70;89.10;;;;;;5013541;28;20050;-90
2023/10/24 04:25:54;;;;;;;12.20;7.38;;;11.70;89.10;;;;;;5007988;28;20134;-90
2023/10/24 04:28:21;;;;;;;10.60;6.60;;;11.80;89.10;;;;;;5008030;28;20059;-90
2023/10/24 04:30:52;;;;;;;11.57;6.83;;;11.80;89.20;;;;;;4975033;28;20421;-90
2023/10/24 04:33:20;;;;;;;12.85;8.05;;;11.80;89.30;;;;;;4975222;28;20283;-90
2023/10/24 04:35:49;;;;;;;11.77;7.10;;;11.90;89.30;;;;;;4974506;28;20058;-90
2023/10/24 04:38:21;;;;;;;11.35;7.20;;;11.90;89.40;;;;;;5007331;28;20080;-89
2023/10/24 04:40:51;;;;;;;11.02;6.93;;;11.90;89.60;;;;;;4973939;28;20137;-90
2023/10/24 04:43:20;;;;;;;10.30;6.80;;;11.90;89.50;;;;;;5006041;28;20058;-90
2023/10/24 04:45:52;;;;;;;10.38;6.97;;;11.90;89.60;;;;;;4973174;28;20349;-89
2023/10/24 04:48:19;;;;;;;13.60;7.20;;;11.90;89.60;;;;;;5005977;28;20047;-90
2023/10/24 04:50:46;;;;;;;12.70;6.85;;;11.90;89.70;;;;;;5005772;28;20046;-91
2023/10/24 04:53:14;;;;;;;12.32;6.70;;;11.90;89.60;;;;;;4973538;28;20062;-90
2023/10/24 04:55:42;;;;;;;11.80;6.70;;;11.90;89.60;;;;;;5005963;28;20481;-90
2023/10/24 04:58:11;;;;;;;10.25;6.13;;;11.90;89.70;;;;;;5022810;28;20327;-90
2023/10/24 05:00:39;;;;;;;10.90;6.25;;;11.90;89.60;;;;;;5007573;28;20077;-91
2023/10/24 05:03:08;;;;;;;8.73;5.63;;;11.90;89.70;;;;;;4974418;28;20105;-91
2023/10/24 05:05:35;;;;;;;10.35;5.97;;;12.00;89.70;;;;;;4974359;28;20050;-90
2023/10/24 05:08:06;;;;;;;8.23;4.90;;;12.00;89.50;;;;;;4973953;28;20057;-90
2023/10/24 05:10:35;;;;;;;8.52;5.05;;;12.00;89.50;;;;;;4974375;28;20308;-91
2023/10/24 05:13:03;;;;;;;10.32;5.57;;;12.00;89.40;;;;;;5006933;28;20552;-90
2023/10/24 05:15:31;;;;;;;8.63;5.38;;;11.90;89.50;;;;;;4974304;28;20047;-90
2023/10/24 05:17:58;;;;;;;8.85;5.10;;;12.00;89.40;;;;;;5005896;28;20635;-90
2023/10/24 05:20:27;;;;;;;8.30;5.00;;;12.00;89.30;;;;;;4974009;28;20432;-90
2023/10/24 05:22:54;;;;;;;7.25;4.65;;;12.00;89.30;;;;;;5007027;28;20267;-91
2023/10/24 05:25:21;;;;;;;8.88;4.90;;;11.90;89.30;;;;;;5006874;28;20047;-90
2023/10/24 05:27:49;;;;;;;8.82;5.10;;;12.00;89.30;;;;;;4974074;28;20515;-90
2023/10/24 05:30:19;;;;;;;9.82;4.90;;;12.00;89.20;;;;;;4978630;28;20055;-90
2023/10/24 05:32:47;;;;;;;8.70;4.93;;;12.00;89.20;;;;;;4979153;28;20062;-90
2023/10/24 05:35:14;;;;;;;8.52;4.43;;;11.90;89.10;;;;;;5011107;28;20270;-90
2023/10/24 05:37:46;;;;;;;8.02;4.45;;;11.90;89.10;;;;;;5011492;28;20509;-90
2023/10/24 05:40:14;;;;;;;8.20;4.88;;;12.00;89.00;;;;;;4979210;28;20051;-91
2023/10/24 05:42:44;;;;;;;7.40;4.50;;;11.90;88.90;;;;;;4979007;28;20058;-91
2023/10/24 05:45:23;;;;;;;10.30;4.77;;;11.90;89.00;;;;;;4978553;28;20150;-90
2023/10/24 05:47:51;;;;;;;8.10;4.68;;;11.90;88.90;;;;;;4959296;28;20358;-91
2023/10/24 05:50:20;;;;;;;9.52;4.80;;;11.90;89.00;;;;;;5016485;28;20575;-91
2023/10/24 05:52:50;;;;;;;9.68;5.00;;;11.90;88.90;;;;;;5030486;28;20061;-89
2023/10/24 05:55:17;;;;;;;8.20;4.25;;;11.90;88.90;;;;;;4977187;28;20047;-90
2023/10/24 05:58:10;;;;;;;8.30;4.53;;;11.90;88.80;;;;;;4978388;28;20063;-91
2023/10/24 06:00:38;;;;;;;7.15;4.30;;;11.90;88.90;;;;;;4978988;28;20256;-90
2023/10/24 06:03:05;;;;;;;7.78;4.35;;;11.90;88.90;;;;;;5010251;28;20056;-90
2023/10/24 06:05:34;;;;;;;7.95;4.53;;;11.90;88.90;;;;;;4977301;28;20047;-90
2023/10/24 06:08:28;;;;;;;8.35;4.55;;;11.90;88.90;;;;;;4981890;28;20104;-90
2023/10/24 06:10:56;;;;;;;10.50;5.30;;;11.90;88.90;;;;;;4979251;28;20055;-90
2023/10/24 06:13:24;;;;;;;8.93;5.53;;;11.90;88.80;;;;;;4977378;28;20269;-90
2023/10/24 06:15:53;;;;;;;9.70;4.38;;;11.90;88.80;;;;;;4977998;28;20094;-90
2023/10/24 06:18:21;;;;;;;9.55;4.82;;;11.90;88.80;;;;;;4977561;28;20836;-91
2023/10/24 06:20:49;;;;;;;8.57;4.63;;;11.90;88.80;;;;;;4991940;28;20050;-90
2023/10/24 06:23:16;;;;;;;7.73;4.50;;;11.90;88.70;;;;;;4998702;28;20056;-91
2023/10/24 06:25:45;;;;;;;9.15;4.90;;;11.90;88.70;;;;;;4979714;28;20258;-90
2023/10/24 06:28:12;;;;;;;8.88;4.82;;;11.90;88.70;;;;;;4980109;28;20063;-90
2023/10/24 06:30:39;;;;;;;8.32;4.80;;;11.90;88.70;;;;;;4986942;28;20046;-91
2023/10/24 06:33:08;;;;;;;8.80;4.88;;;11.90;88.70;;;;;;4983047;28;20055;-91
2023/10/24 06:35:39;;;;;;;9.03;5.30;;;11.90;88.60;;;;;;4983533;28;20050;-90
2023/10/24 06:38:06;;;;;;;9.07;4.60;;;11.90;88.70;;;;;;4977358;28;20298;-91
2023/10/24 06:40:34;;;;;;;7.80;4.53;;;11.90;88.70;;;;;;5008549;28;20062;-91
2023/10/24 06:43:05;;;;;;;9.43;4.63;;;11.90;88.60;;;;;;5009188;28;20046;-90
2023/10/24 06:45:34;;;;;;;9.32;5.00;;;11.90;88.70;;;;;;5008382;28;20102;-91
2023/10/24 06:48:01;;;;;;;9.57;4.50;;;11.90;88.70;;;;;;5009143;28;20066;-91
2023/10/24 06:50:29;;;;;;;8.32;4.30;;;11.90;88.60;;;;;;5019500;28;20255;-91
2023/10/24 06:52:56;;;;;;;9.65;4.30;;;11.90;88.60;;;;;;5020291;28;20062;-92
2023/10/24 06:55:24;;;;;;;8.13;4.60;;;11.90;88.60;;;;;;4982686;28;20524;-91
2023/10/24 06:57:51;;;;;;;7.85;4.03;;;11.90;88.50;;;;;;4982315;28;20137;-91
2023/10/24 07:00:22;;;;;;;7.77;4.50;;;11.90;88.50;;;;;;5013350;28;20062;-91
2023/10/24 07:02:49;;;;;;;7.57;4.03;;;11.90;88.40;;;;;;4981096;28;20976;-91
2023/10/24 07:05:17;;;;;;;9.02;4.55;;;11.90;88.30;;;;;;5012142;28;20055;-91
2023/10/24 07:07:44;;;;;;;7.63;4.47;;;11.90;88.10;;;;;;4981233;28;20055;-90
2023/10/24 07:10:15;;;;;;;8.80;5.18;;;11.90;88.10;;;;;;4979060;28;20057;-90
2023/10/24 07:12:42;;;;;;;9.27;4.97;;;11.80;88.00;;;;;;4981149;28;20754;-90
2023/10/24 07:15:09;;;;;;;8.65;4.60;;;11.90;88.10;;;;;;5010996;28;20281;-89
2023/10/24 07:17:51;;;;;;;8.95;4.97;;;11.80;88.00;;;;;;5007887;28;20714;-91
2023/10/24 07:20:37;;;;;;;8.85;4.38;;;11.80;88.00;;;;;;5017496;28;20436;-91
2023/10/24 07:23:25;;;;;;;8.40;4.32;;;11.80;88.00;;;;;;4985408;28;20343;-91
2023/10/24 07:26:01;;;;;;;9.90;4.73;;;11.80;88.00;;;;;;4979902;28;20575;-92
2023/10/24 07:28:34;;;;;;;10.02;4.90;;;11.80;87.90;;;;;;5006504;28;20337;-91
2023/10/24 07:31:04;;;;;;;9.30;4.65;;;11.80;87.90;;;;;;5007608;28;20097;-92
2023/10/24 07:33:36;;;;;;;8.73;4.75;;;11.70;87.90;;;;;;5007488;28;20058;-91
2023/10/24 07:36:09;;;;;;;11.75;5.28;;;11.70;87.90;;;;;;4975347;28;20051;-92
2023/10/24 07:38:40;;;;;;;10.43;5.40;;;11.80;88.00;;;;;;4975724;28;20057;-91
2023/10/24 07:41:10;;;;;;;10.55;5.70;;;11.70;88.00;;;;;;4972774;28;20259;-91
2023/10/24 07:43:42;;;;;;;9.98;4.97;;;11.80;87.90;;;;;;5007941;28;20062;-92
2023/10/24 07:46:09;;;;;;;8.68;4.28;;;11.80;87.90;;;;;;4973091;28;20161;-80
2023/10/24 07:48:37;;;;;;;10.15;4.60;;;11.80;88.00;;;;;;5021025;28;20078;-82
2023/10/24 07:51:04;;;;;;;8.93;4.57;;;11.80;87.90;;;;;;4998318;28;20061;-84
2023/10/24 07:53:33;;;;;;;8.63;4.70;;;11.80;87.70;;;;;;5002529;28;20356;-85
2023/10/24 07:56:03;;;;;;;8.70;4.50;;;11.80;87.70;;;;;;4982657;28;20081;-82
2023/10/24 07:58:30;;;;;;;8.82;4.50;;;11.80;87.70;;;;;;4999199;28;20149;-87
2023/10/24 08:00:57;;;;;;;10.18;5.05;;;11.80;87.60;;;;;;4983237;28;20059;-83
2023/10/24 08:03:24;;;;;;;11.37;5.50;;;11.70;87.60;;;;;;4980356;28;20062;-86
2023/10/24 08:05:53;;;;;;;9.80;5.10;;;11.70;87.70;;;;;;4976466;28;20485;-79
2023/10/24 08:08:19;;;;;;;11.82;5.65;;;11.70;87.70;;;;;;5001307;28;20543;-83
2023/10/24 08:10:46;;;;;;;11.20;5.40;;;11.70;87.70;;;;;;4982940;28;20061;-82
2023/10/24 08:13:13;;;;;;;10.90;5.45;;;11.70;87.60;;;;;;5018880;28;20137;-83
2023/10/24 08:15:41;;;;;;;11.27;5.47;;;11.70;87.60;;;;;;4987411;28;20057;-82
2023/10/24 08:18:08;;;;;;;11.75;5.80;;;11.70;87.60;;;;;;4969875;28;20284;-81
2023/10/24 08:20:37;;;;;;;12.35;6.50;;;11.70;87.50;;;;;;4989665;28;20693;-84
2023/10/24 08:23:05;;;;;;;12.55;5.63;;;11.70;87.50;;;;;;4973661;28;20051;-82
2023/10/24 08:25:32;;;;;;;14.07;6.07;;;11.80;87.50;;;;;;4988476;28;20047;-84
2023/10/24 08:28:00;;;;;;;10.97;5.77;;;11.70;87.40;;;;;;4986599;28;20053;-85
2023/10/24 08:30:28;;;;;;;11.25;6.13;;;11.80;87.30;;;;;;5005657;28;20247;-85
2023/10/24 08:32:55;;;;;;;11.88;5.57;;;11.80;87.20;;;;;;5003100;28;20149;-83
2023/10/24 08:35:22;;;;;;;11.57;6.30;;;11.80;87.20;;;;;;4971016;28;20058;-83
2023/10/24 08:37:49;;;;;;;13.85;6.47;;;11.70;87.20;;;;;;4994233;28;20086;-84
2023/10/24 08:40:21;;;;;;;11.43;5.70;;;11.70;87.30;;;;;;4993983;28;20046;-89
2023/10/24 08:42:48;;;;;;;12.48;5.85;;;11.70;87.30;;;;;;4976538;28;20269;-84
2023/10/24 08:45:18;;;;;;;13.20;6.60;;;11.80;87.00;;;;;;4987252;28;20552;-87
2023/10/24 08:47:47;;;;;;;11.50;5.93;;;11.80;87.00;;;;;;4998130;28;20057;-87
2023/10/24 08:50:14;;;;;;;11.18;5.90;;;11.70;87.00;;;;;;5009537;28;20053;-83
2023/10/24 08:52:42;;;;;;;10.03;5.43;;;11.70;87.00;;;;;;4979134;28;20142;-86
2023/10/24 08:55:11;;;;;;;11.60;5.70;;;11.80;87.00;;;;;;4970486;28;20328;-88
2023/10/24 08:57:42;;;;;;;11.57;5.63;;;11.80;87.00;;;;;;4982235;28;20949;-87
2023/10/24 09:00:11;;;;;;;11.27;5.40;;;11.80;87.10;;;;;;5001863;28;20150;-83
2023/10/24 09:02:39;;;;;;;11.40;5.70;;;11.80;87.20;;;;;;4986450;28;20051;-83
2023/10/24 09:05:11;;;;;;;10.20;5.10;;;11.70;87.20;;;;;;4970686;28;20062;-84
2023/10/24 09:07:38;;;;;;;11.23;5.43;;;11.80;87.20;;;;;;4976089;28;20289;-82
2023/10/24 09:10:06;;;;;;;10.15;5.60;;;11.80;87.30;;;;;;4977631;28;20054;-84
2023/10/24 09:12:34;;;;;;;10.90;5.47;;;11.80;87.20;;;;;;4970798;28;20061;-83
2023/10/24 09:15:04;;;;;;;8.63;4.20;;;11.80;87.20;;;;;;5020541;28;20161;-81
2023/10/24 09:17:32;;;;;;;8.83;4.80;;;11.80;87.20;;;;;;4987680;28;20051;-81
2023/10/24 09:19:59;;;;;;;11.90;5.45;;;11.80;87.10;;;;;;5019942;28;20255;-81
2023/10/24 09:22:29;;;;;;;10.75;5.07;;;11.80;87.00;;;;;;5022361;28;20647;-82
2023/10/24 09:24:58;;;;;;;9.30;4.82;;;11.80;87.00;;;;;;4971055;28;20050;-82
2023/10/24 09:27:27;;;;;;;8.73;5.07;;;11.80;87.10;;;;;;4969544;28;20054;-81
2023/10/24 09:29:54;;;;;;;11.37;5.30;;;11.80;87.10;;;;;;4986226;28;20159;-83
2023/10/24 09:32:23;;;;;;;9.05;5.00;;;11.70;87.00;;;;;;4970622;28;20277;-83
2023/10/24 09:34:50;;;;;;;9.48;5.32;;;11.70;87.00;;;;;;4971194;28;20062;-84
2023/10/24 09:37:17;;;;;;;9.80;4.90;;;11.70;86.90;;;;;;4987305;28;20528;-84
2023/10/24 09:39:53;;;;;;;9.60;4.97;;;11.80;86.90;;;;;;4985441;28;20058;-84
2023/10/24 09:42:24;;;;;;;9.97;5.13;;;11.80;86.60;;;;;;4971029;28;20137;-87
2023/10/24 09:44:53;;;;;;;9.32;4.90;;;11.70;86.60;;;;;;4972570;28;20282;-84
2023/10/24 09:47:21;;;;;;;9.38;5.38;;;11.70;86.60;;;;;;4972006;28;21015;-85
2023/10/24 09:50:07;;;;;;;9.55;4.93;;;11.80;86.60;;;;;;5023227;28;20145;-90
2023/10/24 09:52:37;;;;;;;9.25;4.90;;;11.80;86.30;;;;;;5020671;28;20057;-89
2023/10/24 09:55:06;;;;;;;9.33;4.87;;;11.80;86.20;;;;;;4985592;28;21056;-88
2023/10/24 09:57:34;;;;;;;9.60;4.93;;;11.80;86.20;;;;;;4988035;28;20290;-81
2023/10/24 10:00:04;;;;;;;10.70;5.40;;;11.80;86.10;;;;;;4972001;28;20054;-88
2023/10/24 10:02:41;;;;;;;7.40;3.78;;;11.70;86.20;;;;;;4990127;28;20046;-85
2023/10/24 10:05:14;;;;;;;8.32;5.00;;;11.80;86.20;;;;;;4988954;28;20564;-86
2023/10/24 10:07:42;;;;;;;9.83;5.33;;;11.80;86.00;;;;;;4977279;28;20054;-80
2023/10/24 10:10:12;;;;;;;9.57;5.32;;;11.80;86.00;;;;;;4977455;28;20740;-81
2023/10/24 10:12:44;;;;;;;9.02;4.75;;;11.70;86.10;;;;;;4978026;28;20133;-90
2023/10/24 10:15:25;;;;;;;9.60;4.75;;;11.80;85.90;;;;;;4977463;28;20050;-88
2023/10/24 10:17:59;;;;;;;8.73;4.80;;;11.80;85.80;;;;;;4976302;28;20059;-86
2023/10/24 10:20:43;;;;;;;8.27;4.63;;;11.80;85.80;;;;;;4974178;28;20078;-81
2023/10/24 10:23:26;;;;;;;10.15;5.00;;;11.80;86.00;;;;;;4976513;28;20342;-85
2023/10/24 10:26:02;;;;;;;9.23;4.95;;;11.80;86.10;;;;;;5024891;28;20134;-87
2023/10/24 10:29:05;;;;;;;9.80;4.95;;;11.90;86.00;;;;;;4990003;28;20054;-84
2023/10/24 10:31:47;;;;;;;10.43;5.75;;;11.90;86.10;;;;;;4962885;28;20424;-83
2023/10/24 10:34:19;;;;;;;8.87;4.90;;;11.90;86.10;;;;;;5022822;28;20094;-84
2023/10/24 10:36:58;;;;;;;11.77;5.60;;;11.90;86.20;;;;;;4988021;28;20254;-85
2023/10/24 10:39:26;;;;;;;10.40;5.75;;;11.90;86.30;;;;;;5012701;28;20086;-87
2023/10/24 10:41:53;;;;;;;10.38;5.97;;;11.90;86.40;;;;;;4989475;28;20101;-87
2023/10/24 10:44:41;;;;;;;10.32;5.65;;;11.90;86.50;;;;;;5001387;28;20134;-87
2023/10/24 10:47:12;;;;;;;11.07;5.77;;;12.00;86.50;;;;;;4973845;28;20928;-84
2023/10/24 10:49:43;;;;;;;12.40;6.45;;;12.00;86.40;;;;;;4974519;28;20373;-84
2023/10/24 10:52:33;;;;;;;10.40;6.22;;;12.00;86.30;;;;;;4990752;28;20047;-80
2023/10/24 10:55:12;;;;;;;13.27;6.63;;;12.00;86.20;;;;;;4989256;28;20090;-81
2023/10/24 10:57:49;;;;;;;11.13;6.05;;;12.10;86.20;;;;;;4988783;28;20106;-85
2023/10/24 11:00:21;;;;;;;11.97;6.10;;;12.10;86.30;;;;;;4991014;28;20061;-83
2023/10/24 11:03:07;;;;;;;10.73;5.88;;;12.10;86.20;;;;;;4989127;28;20326;-81
2023/10/24 11:05:50;;;;;;;11.38;6.05;;;12.10;86.30;;;;;;4989286;28;20055;-82
2023/10/24 11:08:23;;;;;;;10.80;6.40;;;12.10;86.40;;;;;;5022788;28;20443;-85
2023/10/24 11:10:52;;;;;;;10.75;5.85;;;12.20;86.40;;;;;;4975792;28;20112;-84
2023/10/24 11:13:37;;;;;;;11.37;6.60;;;12.20;86.30;;;;;;4975923;28;20062;-85
2023/10/24 11:16:05;;;;;;;12.60;6.63;;;12.20;86.30;;;;;;4986601;28;20286;-85
2023/10/24 11:18:33;;;;;;;10.98;5.72;;;12.30;86.40;;;;;;5036112;28;20086;-86
2023/10/24 11:21:02;;;;;;;11.70;6.47;;;12.30;86.10;;;;;;5031287;28;20062;-84
2023/10/24 11:23:31;;;;;;;11.90;6.70;;;12.30;86.00;;;;;;5005814;28;20061;-83
2023/10/24 11:25:58;;;;;;;12.10;6.57;;;12.30;86.00;;;;;;4988413;28;20101;-83
2023/10/24 11:28:27;;;;;;;11.95;6.18;;;12.30;85.90;;;;;;4998083;28;20286;-83
2023/10/24 11:30:55;;;;;;;11.80;5.82;;;12.40;85.90;;;;;;4988346;28;20051;-82
2023/10/24 11:33:23;;;;;;;10.88;5.72;;;12.40;85.90;;;;;;4989180;28;20050;-83
2023/10/24 11:35:50;;;;;;;10.38;5.72;;;12.40;85.90;;;;;;4972628;28;20098;-82
2023/10/24 11:38:18;;;;;;;13.10;6.30;;;12.50;86.00;;;;;;5003268;28;20054;-83
2023/10/24 11:40:49;;;;;;;10.88;5.75;;;12.50;86.00;;;;;;4988389;28;20659;-83
2023/10/24 11:43:17;;;;;;;10.32;5.97;;;12.50;85.90;;;;;;4968807;28;20042;-83
2023/10/24 11:45:46;;;;;;;10.95;6.57;;;12.50;85.70;;;;;;4970637;28;20058;-83
2023/10/24 11:48:13;;;;;;;13.30;6.03;;;12.50;85.70;;;;;;4970559;28;20489;-84
2023/10/24 11:50:44;;;;;;;10.67;6.63;;;12.50;85.60;;;;;;4988702;28;20499;-82
2023/10/24 11:53:30;;;;;;;10.77;6.68;;;12.50;85.50;;;;;;4972310;28;20255;-83
2023/10/24 11:55:59;;;;;;;10.30;5.95;;;12.50;85.50;;;;;;4987389;28;20145;-82
2023/10/24 11:58:34;;;;;;;10.50;5.90;;;12.50;85.60;;;;;;4970181;28;21517;-82
2023/10/24 12:01:02;;;;;;;9.80;6.18;;;12.50;85.70;;;;;;4987861;28;20202;-82
2023/10/24 12:03:45;;;;;;;10.07;6.10;;;12.50;85.70;;;;;;4987835;28;20182;-82
2023/10/24 12:06:12;;;;;;;10.25;6.20;;;12.60;85.90;;;;;;4987074;28;20257;-82
2023/10/24 12:08:39;;;;;;;13.25;6.75;;;12.70;86.00;;;;;;4986077;28;20130;-83
2023/10/24 12:11:10;;;;;;;9.27;5.43;;;12.70;85.90;;;;;;4971295;28;21061;-86
2023/10/24 12:13:37;;;;;;;8.55;5.43;;;12.80;85.80;;;;;;4987961;28;20078;-84
2023/10/24 12:16:05;;;;;;;12.03;6.50;;;12.80;85.40;;;;;;5048643;23;20563;-85
2023/10/24 12:18:33;;;;;;;9.45;5.78;;;12.80;85.20;;;;;;4988896;28;20278;-85
2023/10/24 12:21:00;;;;;;;9.70;5.43;;;12.90;84.00;;;;;;5004875;28;20046;-85
2023/10/24 12:23:27;;;;;;;10.40;5.72;;;12.90;83.50;;;;;;4990984;28;20161;-81
2023/10/24 12:25:55;;;;;;;10.48;5.18;;;12.90;83.50;;;;;;5006908;28;20058;-77
2023/10/24 12:28:23;;;;;;;9.10;5.33;;;12.90;83.30;;;;;;4990897;28;20051;-86
2023/10/24 12:30:52;;;;;;;10.70;5.25;;;12.90;83.00;;;;;;5006197;28;20274;-82
2023/10/24 12:33:19;;;;;;;9.70;5.43;;;13.00;82.80;;;;;;4990572;28;20049;-82
2023/10/24 12:35:47;;;;;;;9.85;5.80;;;13.00;82.50;;;;;;5007208;28;20090;-84
2023/10/24 12:38:15;;;;;;;8.88;5.18;;;12.90;82.60;;;;;;5006886;28;20150;-83
2023/10/24 12:40:44;;;;;;;7.57;4.70;;;12.90;82.40;;;;;;5007572;28;20599;-80
2023/10/24 12:43:12;;;;;;;9.23;5.32;;;12.90;82.20;;;;;;4991453;28;20258;-80
2023/10/24 12:45:40;;;;;;;8.75;5.05;;;12.90;82.00;;;;;;5002927;28;20141;-80
2023/10/24 12:48:11;;;;;;;9.45;5.35;;;12.90;81.90;;;;;;4980365;28;20525;-81
2023/10/24 12:50:38;;;;;;;9.95;5.47;;;12.90;82.00;;;;;;5006501;28;20057;-81
2023/10/24 12:53:05;;;;;;;9.67;6.03;;;12.90;81.90;;;;;;5005624;28;20050;-81
2023/10/24 12:55:34;;;;;;;6.95;4.70;;;12.90;81.90;;;;;;4978423;28;20392;-82